Time;durP1;ratioP1;P1;durP2;ratioP2;P2;SDS_P1;SDS_P2;PMS_P1;PMS_P2;Temp;Humidity;BMP_temperature;BMP_pressure;BME280_temperature;BME280_humidity;BME280_pressure;Samples;Min_cycle;Max_cycle;Signal;HPM_P1;HPM_P2
2021/09/30 00:08:29;;;;;;;0.10;0.10;;;;;;;13.53;60.98;102414.19;5048441;28;20128;-79
2021/09/30 00:11:05;;;;;;;0.15;0.15;;;;;;;13.48;61.38;102411.53;5050049;28;20099;-79
2021/09/30 00:16:29;;;;;;;0.10;0.10;;;;;;;13.41;61.26;102417.84;5090930;27;20419;-80
2021/09/30 00:32:53;;;;;;;0.10;0.10;;;;;;;13.03;63.02;102429.53;5050773;28;20045;-79
2021/09/30 00:40:58;;;;;;;0.10;0.10;;;;;;;12.95;63.54;102438.44;5070472;28;20048;-79
2021/09/30 00:46:20;;;;;;;0.10;0.10;;;;;;;12.95;62.95;102442.88;5050431;28;20038;-79
2021/09/30 00:48:57;;;;;;;0.00;0.00;;;;;;;12.94;63.00;102441.09;5050954;28;20033;-79
2021/09/30 00:51:32;;;;;;;0.10;0.10;;;;;;;12.97;62.91;102450.84;5050658;28;20025;-79
2021/09/30 01:46:25;;;;;;;0.10;0.10;;;;;;;13.04;61.07;102449.94;5070840;28;20123;-79
2021/09/30 02:19:43;;;;;;;1.70;1.60;;;;;;;13.15;60.59;102448.09;5070387;28;20037;-80
2021/09/30 02:22:24;;;;;;;0.08;0.08;;;;;;;13.18;60.09;102455.19;5070209;28;20028;-80
2021/09/30 02:25:11;;;;;;;0.08;0.08;;;;;;;13.22;60.70;102457.84;5070575;28;20553;-79
2021/09/30 02:39:22;;;;;;;0.00;0.00;;;;;;;13.35;59.83;102458.66;5070628;28;20574;-79
2021/09/30 02:58:54;;;;;;;0.05;0.05;;;;;;;13.20;60.72;102464.06;5050411;28;20060;-79
2021/09/30 03:01:25;;;;;;;0.10;0.10;;;;;;;13.25;59.75;102463.13;5050716;28;20035;-79
2021/09/30 03:03:54;;;;;;;0.10;0.10;;;;;;;13.23;60.05;102466.69;5050314;28;20033;-80
2021/09/30 03:06:21;;;;;;;0.00;0.00;;;;;;;13.22;60.07;102463.16;5050496;28;20060;-80
2021/09/30 03:08:54;;;;;;;0.00;0.00;;;;;;;13.25;60.09;102465.78;5050851;28;20037;-79
2021/09/30 03:11:22;;;;;;;0.10;0.10;;;;;;;13.21;60.37;102464.03;5050578;28;20030;-80
2021/09/30 03:13:50;;;;;;;0.00;0.00;;;;;;;13.15;60.04;102465.88;5050033;28;20111;-79
2021/09/30 03:19:15;;;;;;;0.10;0.10;;;;;;;13.14;60.24;102466.75;5091771;27;20847;-79
2021/09/30 03:22:14;;;;;;;0.20;0.20;;;;;;;13.08;60.10;102470.31;5071141;28;20115;-79
2021/09/30 03:24:28;;;;;;;0.10;0.10;;;;;;;13.04;60.22;102469.44;5054749;28;20388;-79
2021/09/30 03:26:56;;;;;;;0.20;0.20;;;;;;;12.99;60.44;102475.69;5050825;28;20030;-79
2021/09/30 03:29:23;;;;;;;0.10;0.10;;;;;;;13.01;60.12;102476.53;5050520;28;20025;-79
2021/09/30 03:31:51;;;;;;;0.10;0.10;;;;;;;12.95;60.29;102483.66;5051500;28;20032;-79
2021/09/30 03:34:17;;;;;;;0.10;0.10;;;;;;;12.95;60.21;102480.13;5050941;28;20126;-79
2021/09/30 03:36:44;;;;;;;0.10;0.10;;;;;;;12.94;60.47;102479.22;5050919;28;20147;-80
2021/09/30 03:39:15;;;;;;;0.08;0.08;;;;;;;12.94;60.15;102484.53;5051094;28;20029;-79
2021/09/30 03:41:42;;;;;;;0.05;0.05;;;;;;;12.94;60.00;102484.53;5050965;28;20025;-79
2021/09/30 03:44:10;;;;;;;0.10;0.10;;;;;;;12.92;60.12;102485.44;5050601;28;20030;-79
2021/09/30 03:46:36;;;;;;;1.30;1.30;;;;;;;12.92;60.09;102488.09;5050762;28;20029;-79
2021/09/30 03:49:10;;;;;;;0.10;0.10;;;;;;;12.88;60.10;102495.22;5050551;28;20539;-80
2021/09/30 03:52:13;;;;;;;0.10;0.10;;;;;;;12.88;60.14;102500.53;5050710;28;20029;-79
2021/09/30 03:54:34;;;;;;;0.10;0.10;;;;;;;12.84;60.77;102498.78;5050134;28;20037;-79
2021/09/30 03:59:48;;;;;;;0.10;0.10;;;;;;;12.79;60.62;102505.88;5071557;28;20137;-79
2021/09/30 04:02:15;;;;;;;0.10;0.10;;;;;;;12.77;60.18;102508.56;5071136;28;20036;-79
2021/09/30 04:04:41;;;;;;;0.10;0.10;;;;;;;12.75;60.58;102510.31;5070861;28;20036;-79
2021/09/30 04:07:09;;;;;;;0.10;0.10;;;;;;;12.75;60.46;102502.34;5070943;28;20031;-79
2021/09/30 04:09:37;;;;;;;0.03;0.03;;;;;;;12.69;60.49;102506.81;5071161;28;20387;-79
2021/09/30 04:12:08;;;;;;;0.00;0.00;;;;;;;12.77;60.27;102510.31;5071189;28;20479;-79
2021/09/30 04:14:35;;;;;;;0.10;0.10;;;;;;;12.70;60.42;102509.47;5071090;28;20479;-79
2021/09/30 04:17:01;;;;;;;0.10;0.10;;;;;;;12.72;60.59;102517.44;5070698;28;20037;-79
2021/09/30 04:19:27;;;;;;;0.10;0.10;;;;;;;12.81;60.80;102520.09;5070861;28;20028;-80
2021/09/30 04:21:55;;;;;;;0.10;0.10;;;;;;;12.79;60.57;102527.16;5070573;28;20040;-79
2021/09/30 04:24:22;;;;;;;0.10;0.10;;;;;;;12.82;60.29;102520.97;5070487;28;20028;-79
2021/09/30 04:26:51;;;;;;;0.10;0.10;;;;;;;12.86;60.55;102528.94;5070742;28;20029;-80
2021/09/30 04:29:18;;;;;;;0.08;0.08;;;;;;;12.88;60.10;102537.78;5071208;28;20041;-80
2021/09/30 04:31:45;;;;;;;0.10;0.10;;;;;;;12.95;59.94;102534.22;5068840;28;20029;-79
2021/09/30 04:34:12;;;;;;;0.10;0.10;;;;;;;13.01;59.85;102537.75;5070496;28;20231;-80
2021/09/30 04:36:39;;;;;;;0.10;0.10;;;;;;;13.03;59.54;102542.16;5070995;28;20025;-79
2021/09/30 04:39:05;;;;;;;0.10;0.10;;;;;;;13.08;59.27;102536.84;5070172;28;20033;-79
2021/09/30 04:41:32;;;;;;;0.10;0.10;;;;;;;13.13;59.03;102537.69;5070443;28;20498;-80
2021/09/30 04:43:58;;;;;;;0.10;0.10;;;;;;;13.17;59.10;102539.50;5069556;28;20029;-79
2021/09/30 04:46:25;;;;;;;0.10;0.10;;;;;;;13.23;58.92;102536.81;5069595;28;20491;-79
2021/09/30 04:48:52;;;;;;;0.10;0.10;;;;;;;13.31;59.33;102534.09;5070255;28;20021;-79
2021/09/30 04:51:18;;;;;;;0.00;0.00;;;;;;;13.34;58.67;102538.53;5069758;28;20415;-79
2021/09/30 04:53:45;;;;;;;0.10;0.10;;;;;;;13.41;59.50;102527.00;5070157;28;20123;-80
2021/09/30 04:56:12;;;;;;;0.10;0.10;;;;;;;13.43;59.08;102528.75;5069791;28;20093;-80
2021/09/30 04:58:39;;;;;;;0.10;0.10;;;;;;;13.43;58.77;102533.19;5069791;28;20050;-80
2021/09/30 05:01:05;;;;;;;0.10;0.10;;;;;;;13.41;58.62;102538.53;5070132;28;20087;-79
2021/09/30 05:03:32;;;;;;;0.10;0.10;;;;;;;13.50;58.56;102537.59;5073025;22;20052;-89
2021/09/30 05:05:59;;;;;;;0.10;0.10;;;;;;;13.49;58.66;102535.81;5029431;28;20042;-88
2021/09/30 05:08:28;;;;;;;0.10;0.10;;;;;;;13.44;58.68;102534.94;5030339;28;20026;-88
2021/09/30 05:10:54;;;;;;;0.10;0.10;;;;;;;13.47;59.20;102544.69;5016514;28;20034;-90
2021/09/30 05:13:22;;;;;;;0.10;0.10;;;;;;;13.47;59.06;102548.28;5015238;28;20064;-89
2021/09/30 05:15:49;;;;;;;0.10;0.10;;;;;;;13.49;59.14;102540.25;5016630;28;20026;-89
2021/09/30 05:18:15;;;;;;;0.10;0.10;;;;;;;13.48;59.04;102544.69;5016835;28;20111;-87
2021/09/30 05:20:41;;;;;;;0.10;0.10;;;;;;;13.48;58.88;102550.00;5016679;28;20080;-88
2021/09/30 05:23:08;;;;;;;0.10;0.10;;;;;;;13.48;58.94;102534.03;5016292;28;20071;-89
2021/09/30 05:25:34;;;;;;;0.10;0.10;;;;;;;13.43;59.41;102533.19;5016603;28;20037;-88
2021/09/30 05:28:02;;;;;;;0.10;0.10;;;;;;;13.39;59.76;102544.75;5016637;28;20389;-89
2021/09/30 05:30:29;;;;;;;0.20;0.20;;;;;;;13.34;59.88;102541.19;5016344;28;20443;-89
2021/09/30 05:32:55;;;;;;;0.10;0.10;;;;;;;13.26;59.34;102526.13;5016030;28;20373;-87
2021/09/30 05:35:22;;;;;;;0.10;0.10;;;;;;;13.23;60.13;102534.13;5015878;28;20165;-87
2021/09/30 05:37:48;;;;;;;0.00;0.00;;;;;;;13.20;59.97;102543.91;5016088;28;20121;-89
2021/09/30 05:40:14;;;;;;;0.17;0.17;;;;;;;13.15;60.00;102541.25;5015578;28;20030;-86
2021/09/30 05:42:43;;;;;;;0.00;0.00;;;;;;;13.11;60.16;102539.50;5015984;28;20030;-89
2021/09/30 05:45:12;;;;;;;0.00;0.00;;;;;;;13.08;60.16;102539.50;5016332;28;20033;-86
2021/09/30 05:47:39;;;;;;;0.10;0.10;;;;;;;13.04;60.32;102543.94;5016072;28;20034;-88
2021/09/30 05:50:07;;;;;;;0.20;0.20;;;;;;;13.01;59.98;102545.72;5015197;28;20084;-91
2021/09/30 05:52:34;;;;;;;0.10;0.10;;;;;;;12.98;60.07;102543.09;5015740;28;20022;-83
2021/09/30 05:55:00;;;;;;;0.00;0.00;;;;;;;12.95;60.22;102538.66;5015513;28;20504;-90
2021/09/30 05:57:26;;;;;;;0.10;0.10;;;;;;;12.94;60.29;102545.75;5015813;28;20389;-86
2021/09/30 05:59:53;;;;;;;0.10;0.10;;;;;;;12.91;60.19;102542.19;5015566;28;20041;-86
2021/09/30 06:10:43;;;;;;;0.10;0.10;;;;;;;12.78;61.32;102554.66;5014984;28;20042;-87
2021/09/30 06:13:13;;;;;;;0.10;0.10;;;;;;;12.74;61.27;102552.91;5015751;28;20037;-88
2021/09/30 06:15:42;;;;;;;2.85;1.33;;;;;;;12.65;61.14;102555.56;5015643;28;20637;-88
2021/09/30 06:18:08;;;;;;;0.10;0.10;;;;;;;12.73;61.30;102559.09;5015014;28;20189;-87
2021/09/30 06:20:36;;;;;;;0.00;0.00;;;;;;;12.71;62.10;102551.13;5015202;28;20088;-86
2021/09/30 06:23:03;;;;;;;0.10;0.10;;;;;;;12.74;61.70;102547.56;5014315;28;20026;-87
2021/09/30 06:25:30;;;;;;;0.10;0.10;;;;;;;12.70;61.82;102553.81;5015873;28;20040;-88
2021/09/30 06:27:57;;;;;;;0.10;0.10;;;;;;;12.77;61.34;102553.78;5014996;28;20034;-85
2021/09/30 06:30:29;;;;;;;0.32;0.32;;;;;;;12.82;61.90;102553.75;5015314;28;20037;-87
2021/09/30 06:32:55;;;;;;;0.57;0.57;;;;;;;12.85;61.45;102555.53;5030044;23;20037;-76
2021/09/30 06:35:22;;;;;;;0.10;0.10;;;;;;;12.94;62.27;102559.03;5013529;28;20383;-79
2021/09/30 06:37:48;;;;;;;3.03;0.65;;;;;;;13.02;61.68;102553.72;5015037;28;20030;-79
2021/09/30 06:40:14;;;;;;;0.10;0.10;;;;;;;13.05;61.42;102550.16;5014773;28;20045;-80
2021/09/30 06:42:40;;;;;;;1.35;1.17;;;;;;;13.19;61.82;102551.00;5014714;28;20058;-80
2021/09/30 06:45:07;;;;;;;0.10;0.10;;;;;;;13.25;61.49;102556.28;5014662;28;20466;-80
2021/09/30 06:47:37;;;;;;;0.17;0.17;;;;;;;13.38;60.96;102548.28;5013792;28;20025;-79
2021/09/30 06:50:06;;;;;;;0.10;0.10;;;;;;;13.45;61.72;102559.81;5014336;28;20054;-79
2021/09/30 06:52:33;;;;;;;0.10;0.10;;;;;;;13.51;61.58;102554.47;5013472;28;20029;-79
2021/09/30 06:54:59;;;;;;;0.10;0.10;;;;;;;13.66;60.67;102557.03;5013682;28;20029;-79
2021/09/30 06:57:29;;;;;;;0.10;0.10;;;;;;;13.68;61.44;102563.25;5013850;28;20030;-79
2021/09/30 06:59:59;;;;;;;0.10;0.10;;;;;;;13.74;60.84;102547.25;5014864;28;20034;-79
2021/09/30 07:02:25;;;;;;;0.00;0.00;;;;;;;13.80;61.22;102556.94;5014560;28;20034;-79
2021/09/30 07:04:52;;;;;;;0.10;0.10;;;;;;;13.74;62.26;102554.31;5014029;28;20049;-79
2021/09/30 07:07:18;;;;;;;0.68;0.68;;;;;;;13.80;61.75;102559.63;5014552;28;20084;-79
2021/09/30 07:09:45;;;;;;;0.10;0.10;;;;;;;13.84;61.99;102553.38;5014436;28;20113;-79
2021/09/30 07:12:12;;;;;;;0.10;0.10;;;;;;;13.81;62.10;102566.72;5014406;28;20033;-79
2021/09/30 07:14:40;;;;;;;4.85;1.55;;;;;;;13.84;61.74;102561.34;5013950;28;20026;-80
2021/09/30 07:17:07;;;;;;;0.45;0.45;;;;;;;13.88;61.74;102559.56;5014438;28;20025;-79
2021/09/30 07:19:35;;;;;;;0.00;0.00;;;;;;;13.85;61.89;102564.94;5014055;28;20484;-79
2021/09/30 07:22:04;;;;;;;0.05;0.05;;;;;;;13.81;62.14;102564.06;5014565;28;20073;-79
2021/09/30 07:24:31;;;;;;;0.10;0.10;;;;;;;13.86;62.33;102564.91;5013783;28;20499;-78
2021/09/30 07:26:57;;;;;;;0.10;0.10;;;;;;;13.90;61.93;102560.44;5013854;28;20034;-79
2021/09/30 07:29:24;;;;;;;0.10;0.10;;;;;;;13.90;61.83;102566.66;5014167;28;20531;-79
2021/09/30 07:31:50;;;;;;;0.10;0.10;;;;;;;13.97;62.21;102569.28;5014075;28;20080;-79
2021/09/30 07:34:16;;;;;;;0.63;0.63;;;;;;;14.03;62.03;102564.81;5013633;28;20034;-79
2021/09/30 07:36:44;;;;;;;0.00;0.00;;;;;;;14.06;62.47;102574.56;5014194;28;20045;-79
2021/09/30 07:39:12;;;;;;;0.03;0.03;;;;;;;14.05;62.28;102567.47;5014219;28;20029;-79
2021/09/30 07:41:40;;;;;;;0.10;0.10;;;;;;;14.13;62.11;102564.72;5014282;28;20529;-79
2021/09/30 07:44:07;;;;;;;0.00;0.00;;;;;;;14.03;62.04;102575.47;5013662;28;20036;-79
2021/09/30 07:46:35;;;;;;;0.10;0.10;;;;;;;14.18;62.27;102568.25;5014515;28;20034;-80
2021/09/30 07:49:05;;;;;;;0.10;0.10;;;;;;;14.26;61.97;102563.75;5013259;28;20026;-78
2021/09/30 07:51:32;;;;;;;0.10;0.10;;;;;;;14.22;62.09;102570.88;5013726;28;20044;-80
2021/09/30 07:53:58;;;;;;;0.00;0.00;;;;;;;14.35;61.51;102561.00;5013713;28;20022;-80
2021/09/30 07:56:25;;;;;;;0.10;0.10;;;;;;;14.34;61.70;102569.91;5013841;28;20029;-80
2021/09/30 07:58:51;;;;;;;1.15;1.15;;;;;;;14.51;61.08;102571.53;5014095;28;20112;-81
2021/09/30 08:01:19;;;;;;;0.75;0.75;;;;;;;14.63;61.31;102575.88;5013839;28;20482;-81
2021/09/30 08:03:46;;;;;;;0.10;0.10;;;;;;;14.74;60.82;102574.00;5014160;28;20109;-80
2021/09/30 08:06:12;;;;;;;0.10;0.10;;;;;;;14.80;60.62;102573.94;5013312;28;20113;-79
2021/09/30 08:08:38;;;;;;;0.10;0.10;;;;;;;14.94;60.45;102573.84;5013741;28;20033;-80
2021/09/30 08:11:04;;;;;;;0.20;0.20;;;;;;;15.01;60.04;102570.19;5013713;28;20109;-79
2021/09/30 08:13:31;;;;;;;1.30;1.30;;;;;;;15.13;59.61;102579.84;5013339;28;20125;-80
2021/09/30 08:15:59;;;;;;;0.50;0.50;;;;;;;15.13;59.35;102585.19;5013402;28;20063;-80
2021/09/30 08:18:26;;;;;;;0.10;0.10;;;;;;;15.32;58.49;102575.16;5013326;28;20528;-80
2021/09/30 08:20:52;;;;;;;0.00;0.00;;;;;;;15.43;58.55;102575.03;5013403;28;20437;-80
2021/09/30 08:23:19;;;;;;;0.10;0.10;;;;;;;15.59;57.48;102578.41;5012912;28;20030;-80
2021/09/30 08:25:45;;;;;;;0.20;0.20;;;;;;;15.80;57.72;102579.91;5013621;28;20060;-80
2021/09/30 08:28:13;;;;;;;0.47;0.47;;;;;;;15.96;57.96;102571.69;5013840;28;20030;-80
2021/09/30 08:30:42;;;;;;;0.10;0.10;;;;;;;15.99;57.42;102574.31;5013034;28;20026;-80
2021/09/30 08:33:10;;;;;;;0.15;0.15;;;;;;;16.18;56.81;102570.44;5013077;28;20033;-79
2021/09/30 08:35:37;;;;;;;0.10;0.10;;;;;;;16.15;55.43;102567.81;5013269;28;20034;-80
2021/09/30 08:38:05;;;;;;;0.10;0.10;;;;;;;16.22;55.30;102563.25;5013024;28;20073;-80
2021/09/30 08:40:31;;;;;;;0.10;0.10;;;;;;;16.30;55.51;102565.81;5013400;28;20046;-80
2021/09/30 08:42:58;;;;;;;0.10;0.10;;;;;;;16.36;54.84;102563.00;5013223;28;20022;-80
2021/09/30 08:45:25;;;;;;;0.00;0.00;;;;;;;16.45;54.79;102562.00;5014689;28;20542;-80
2021/09/30 08:48:00;;;;;;;0.00;0.00;;;;;;;16.51;54.92;102556.53;5017192;28;20030;-80
2021/09/30 08:50:28;;;;;;;0.10;0.10;;;;;;;16.53;54.46;102568.09;5016944;28;20080;-80
2021/09/30 08:52:54;;;;;;;0.40;0.40;;;;;;;16.60;54.51;102566.22;5017475;28;20375;-80
2021/09/30 08:55:21;;;;;;;0.10;0.10;;;;;;;16.57;53.31;102558.22;5016495;28;20477;-80
2021/09/30 08:57:49;;;;;;;0.10;0.10;;;;;;;16.54;53.53;102555.59;5016597;28;20048;-80
2021/09/30 09:00:17;;;;;;;0.10;0.10;;;;;;;16.50;53.75;102554.78;5016771;28;20508;-80
2021/09/30 09:02:47;;;;;;;0.10;0.10;;;;;;;16.54;53.72;102563.63;5016721;28;20029;-80
2021/09/30 09:05:14;;;;;;;0.10;0.10;;;;;;;16.46;52.64;102558.41;5016336;28;20076;-80
2021/09/30 09:07:51;;;;;;;0.10;0.10;;;;;;;16.63;53.35;102558.09;5016560;28;20034;-80
2021/09/30 09:10:19;;;;;;;0.10;0.10;;;;;;;16.49;52.78;102553.88;5016481;28;20112;-80
2021/09/30 09:12:45;;;;;;;0.00;0.00;;;;;;;16.60;53.04;102555.50;5016611;28;20029;-81
2021/09/30 09:15:12;;;;;;;0.10;0.10;;;;;;;16.57;52.62;102553.72;5014998;28;20026;-80
2021/09/30 09:17:40;;;;;;;0.10;0.10;;;;;;;16.67;52.11;102559.81;5015164;28;20025;-80
2021/09/30 09:20:07;;;;;;;0.10;0.10;;;;;;;16.63;51.54;102556.28;5013749;28;20034;-80
2021/09/30 09:22:36;;;;;;;0.00;0.00;;;;;;;16.73;52.23;102551.66;5014636;28;20092;-80
2021/09/30 09:33:28;;;;;;;0.00;0.00;;;;;;;16.47;52.03;102553.03;5085681;27;20780;-83
2021/09/30 09:41:30;;;;;;;0.10;0.10;;;;;;;16.71;52.29;102548.16;5089388;27;20410;-79
2021/09/30 09:43:58;;;;;;;0.05;0.05;;;;;;;16.73;51.86;102546.31;5060585;28;20040;-79
2021/09/30 09:46:30;;;;;;;0.00;0.00;;;;;;;16.75;51.31;102539.16;5049293;28;20025;-80
2021/09/30 09:48:59;;;;;;;0.10;0.10;;;;;;;16.91;51.43;102533.47;5049490;28;20025;-80
2021/09/30 09:51:32;;;;;;;0.10;0.10;;;;;;;16.97;51.16;102534.31;5049342;28;20508;-81
2021/09/30 09:53:58;;;;;;;0.00;0.00;;;;;;;17.00;51.12;102533.34;5046980;28;20120;-80
2021/09/30 09:56:25;;;;;;;0.20;0.20;;;;;;;16.87;51.06;102527.31;5029251;28;20038;-81
2021/09/30 09:58:56;;;;;;;0.10;0.10;;;;;;;17.15;50.65;102534.84;5029871;28;20104;-80
2021/09/30 10:01:27;;;;;;;0.10;0.10;;;;;;;17.20;50.42;102530.25;5029763;28;20030;-79
2021/09/30 10:03:57;;;;;;;0.10;0.10;;;;;;;17.26;50.22;102534.63;5030587;28;20422;-80
2021/09/30 10:06:24;;;;;;;0.50;0.38;;;;;;;17.37;50.02;102537.94;5029081;28;20057;-80
2021/09/30 10:08:51;;;;;;;0.10;0.10;;;;;;;16.89;49.29;102535.34;5029758;28;20080;-81
2021/09/30 10:11:17;;;;;;;0.10;0.10;;;;;;;17.09;49.61;102533.16;5029634;28;20100;-80
2021/09/30 10:13:44;;;;;;;2.30;1.23;;;;;;;16.90;48.55;102542.47;5029221;28;20069;-80
2021/09/30 10:16:10;;;;;;;0.40;0.40;;;;;;;17.01;49.06;102535.13;5028939;28;20022;-79
2021/09/30 10:18:36;;;;;;;0.10;0.10;;;;;;;17.19;48.53;102523.13;5029329;28;20117;-78
2021/09/30 10:21:03;;;;;;;0.30;0.30;;;;;;;16.97;48.63;102528.94;5032604;28;20120;-79
2021/09/30 10:23:35;;;;;;;0.10;0.10;;;;;;;17.32;48.44;102534.50;5028698;28;20034;-79
2021/09/30 10:26:22;;;;;;;0.10;0.10;;;;;;;17.68;48.57;102531.00;5028900;28;20049;-79
2021/09/30 10:28:48;;;;;;;0.10;0.10;;;;;;;17.66;48.39;102532.84;5028737;28;20053;-79
2021/09/30 10:34:32;;;;;;;0.25;0.25;;;;;;;17.53;48.40;102522.38;5068935;28;20398;-79
2021/09/30 10:42:56;;;;;;;0.10;0.10;;;;;;;17.54;46.62;102517.94;5089656;27;20410;-79
2021/09/30 10:48:27;;;;;;;0.00;0.00;;;;;;;17.63;47.16;102520.38;5089714;28;21215;-79
2021/09/30 10:51:11;;;;;;;0.10;0.10;;;;;;;17.79;48.38;102520.91;5069315;28;20113;-80
2021/09/30 10:56:39;;;;;;;0.10;0.10;;;;;;;17.78;48.06;102522.72;5089359;27;20205;-79
2021/09/30 11:05:00;;;;;;;0.30;0.30;;;;;;;17.69;48.10;102522.06;5081510;22;20789;-85
2021/09/30 11:07:27;;;;;;;0.10;0.10;;;;;;;17.49;47.74;102519.84;5068375;28;20090;-85
2021/09/30 11:10:24;;;;;;;0.10;0.10;;;;;;;17.50;47.49;102508.22;5068607;28;20031;-84
2021/09/30 11:13:17;;;;;;;0.52;0.52;;;;;;;17.55;48.45;102511.66;5068725;28;20025;-85
2021/09/30 11:16:23;;;;;;;0.10;0.10;;;;;;;17.44;47.79;102515.44;5048694;28;20574;-85
2021/09/30 11:29:33;;;;;;;0.10;0.10;;;;;;;17.32;48.71;102507.72;5089088;27;20443;-85
2021/09/30 11:34:48;;;;;;;0.10;0.10;;;;;;;17.17;48.27;102510.69;5074698;27;20445;-86
2021/09/30 11:39:59;;;;;;;0.10;0.10;;;;;;;17.33;48.83;102504.09;5068869;28;20845;-87
2021/09/30 11:42:35;;;;;;;0.13;0.13;;;;;;;17.40;48.49;102489.63;5069157;28;20475;-87
2021/09/30 11:45:06;;;;;;;0.10;0.10;;;;;;;17.34;48.34;102496.94;5069034;28;20027;-87
2021/09/30 11:47:33;;;;;;;0.00;0.00;;;;;;;17.45;48.82;102497.59;5068982;28;20040;-87
2021/09/30 11:50:02;;;;;;;0.10;0.10;;;;;;;17.38;48.12;102496.81;5068842;28;20135;-86
2021/09/30 11:52:28;;;;;;;0.00;0.00;;;;;;;17.50;47.93;102497.50;5068811;28;20029;-84
2021/09/30 11:54:54;;;;;;;0.10;0.10;;;;;;;17.50;48.18;102494.81;5068747;28;20033;-81
2021/09/30 11:57:26;;;;;;;0.10;0.10;;;;;;;17.66;48.28;102482.81;5069087;28;20116;-88
2021/09/30 12:00:06;;;;;;;0.10;0.10;;;;;;;17.58;47.84;102483.00;5068513;28;20033;-88
2021/09/30 12:02:33;;;;;;;0.10;0.10;;;;;;;17.63;47.45;102475.72;5068117;28;20025;-88
2021/09/30 12:04:59;;;;;;;0.10;0.10;;;;;;;17.74;47.45;102470.09;5067388;28;20036;-88
2021/09/30 12:07:27;;;;;;;0.10;0.10;;;;;;;17.67;47.77;102471.19;5068464;28;20025;-88
2021/09/30 12:09:56;;;;;;;0.10;0.10;;;;;;;17.66;47.33;102466.72;5068771;28;20036;-88
2021/09/30 12:15:14;;;;;;;0.10;0.10;;;;;;;17.74;46.96;102467.41;5069807;27;20979;-86
2021/09/30 12:17:42;;;;;;;0.10;0.10;;;;;;;17.53;46.65;102462.56;5069344;28;20028;-88
2021/09/30 12:20:12;;;;;;;0.10;0.10;;;;;;;17.38;47.10;102470.03;5068919;28;20089;-87
2021/09/30 12:22:42;;;;;;;0.10;0.10;;;;;;;17.54;47.91;102462.53;5068856;28;20112;-88
2021/09/30 12:27:56;;;;;;;0.10;0.10;;;;;;;17.55;48.05;102464.28;5089073;28;20518;-84
2021/09/30 12:30:26;;;;;;;0.10;0.10;;;;;;;17.44;48.16;102464.53;5068867;28;20068;-84
2021/09/30 12:32:57;;;;;;;0.10;0.10;;;;;;;17.55;48.01;102461.59;5069130;28;20056;-83
2021/09/30 12:35:30;;;;;;;1.55;1.17;;;;;;;17.56;48.22;102449.13;5048277;28;20571;-83
2021/09/30 12:38:00;;;;;;;0.03;0.03;;;;;;;17.60;48.79;102448.97;5049005;28;20045;-83
2021/09/30 12:40:36;;;;;;;0.00;0.00;;;;;;;17.59;48.20;102435.63;5048800;28;20021;-83
2021/09/30 12:43:07;;;;;;;0.05;0.05;;;;;;;17.52;48.42;102434.91;5048729;28;20461;-83
2021/09/30 12:45:37;;;;;;;0.35;0.35;;;;;;;17.38;48.97;102437.88;5048899;28;20435;-83
2021/09/30 12:51:11;;;;;;;0.10;0.10;;;;;;;17.73;48.36;102424.56;5089195;27;20404;-83
2021/09/30 12:53:45;;;;;;;0.10;0.10;;;;;;;17.63;48.36;102421.22;5049819;28;20107;-82
2021/09/30 12:56:14;;;;;;;0.10;0.10;;;;;;;17.71;48.49;102413.88;5029234;28;20092;-83
2021/09/30 12:58:45;;;;;;;0.10;0.10;;;;;;;17.95;48.52;102417.75;5029269;28;20096;-83
2021/09/30 13:01:33;;;;;;;0.10;0.10;;;;;;;17.94;48.01;102407.06;5028377;28;20037;-82
2021/09/30 13:04:23;;;;;;;0.75;0.65;;;;;;;18.14;47.64;102403.00;5029072;28;20523;-82
2021/09/30 13:09:39;;;;;;;0.03;0.03;;;;;;;18.06;48.10;102387.13;5070300;28;20454;-82
2021/09/30 13:12:14;;;;;;;0.10;0.10;;;;;;;18.10;47.38;102392.34;5069159;28;20094;-82
2021/09/30 13:14:53;;;;;;;0.10;0.10;;;;;;;18.23;47.49;102392.00;5055034;28;20041;-82
2021/09/30 13:17:26;;;;;;;0.55;0.55;;;;;;;18.16;47.37;102388.63;5049032;28;20119;-82
2021/09/30 13:19:55;;;;;;;0.10;0.10;;;;;;;18.25;46.95;102377.63;5049024;28;20047;-82
2021/09/30 13:22:29;;;;;;;0.05;0.05;;;;;;;18.28;46.10;102371.31;5048740;28;20476;-83
2021/09/30 13:24:57;;;;;;;0.00;0.00;;;;;;;18.45;46.73;102378.00;5048770;28;20029;-82
2021/09/30 13:27:27;;;;;;;0.25;0.25;;;;;;;18.30;46.78;102377.50;5048717;28;20025;-83
2021/09/30 13:29:54;;;;;;;0.20;0.20;;;;;;;18.38;47.14;102358.50;5049091;28;20030;-82
2021/09/30 13:32:23;;;;;;;0.10;0.10;;;;;;;18.37;47.09;102354.94;5048614;28;20100;-82
2021/09/30 13:34:49;;;;;;;0.10;0.10;;;;;;;18.14;46.59;102357.41;5047515;28;20037;-82
2021/09/30 13:37:16;;;;;;;1.42;1.33;;;;;;;18.21;47.05;102353.63;5048949;28;20060;-83
2021/09/30 13:39:42;;;;;;;0.10;0.10;;;;;;;18.14;47.13;102352.03;5048606;28;20460;-83
2021/09/30 13:42:09;;;;;;;0.10;0.10;;;;;;;18.02;47.79;102345.19;5048648;28;20323;-83
2021/09/30 13:44:35;;;;;;;0.10;0.10;;;;;;;18.11;47.72;102351.19;5048575;28;20119;-86
2021/09/30 13:47:02;;;;;;;0.10;0.10;;;;;;;17.94;47.79;102350.75;5048197;28;20029;-86
2021/09/30 13:49:29;;;;;;;0.30;0.30;;;;;;;17.94;48.14;102337.34;5047566;28;20045;-86
2021/09/30 13:51:55;;;;;;;0.10;0.10;;;;;;;17.87;48.31;102339.31;5048126;28;20039;-86
2021/09/30 13:54:21;;;;;;;0.32;0.32;;;;;;;17.75;48.21;102329.78;5047906;28;20044;-85
2021/09/30 13:56:47;;;;;;;1.10;1.08;;;;;;;17.86;48.22;102324.13;5048266;28;20035;-84
2021/09/30 13:59:13;;;;;;;0.10;0.10;;;;;;;17.90;49.11;102328.47;5048093;28;20420;-83
2021/09/30 14:01:40;;;;;;;0.88;0.85;;;;;;;17.71;49.11;102328.09;5048045;28;20107;-82
2021/09/30 14:04:06;;;;;;;0.10;0.10;;;;;;;17.62;49.06;102321.19;5048464;28;20025;-84
2021/09/30 14:06:32;;;;;;;0.10;0.10;;;;;;;17.76;49.19;102314.59;5046501;28;20453;-85
2021/09/30 14:08:58;;;;;;;0.13;0.13;;;;;;;17.59;49.03;102318.56;5047531;28;20056;-86
2021/09/30 14:11:25;;;;;;;0.17;0.17;;;;;;;17.63;49.59;102308.66;5047061;28;20384;-88
2021/09/30 14:13:53;;;;;;;0.05;0.05;;;;;;;17.59;49.21;102306.97;5047497;28;20035;-88
2021/09/30 14:16:21;;;;;;;0.40;0.40;;;;;;;17.69;48.95;102304.94;5048019;28;20037;-86
2021/09/30 14:18:47;;;;;;;0.08;0.08;;;;;;;17.66;48.99;102302.31;5045852;28;20053;-87
2021/09/30 14:21:14;;;;;;;0.10;0.10;;;;;;;17.62;49.57;102304.25;5033727;28;20056;-88
2021/09/30 14:23:40;;;;;;;0.10;0.10;;;;;;;17.70;49.23;102302.22;5034164;28;20041;-88
2021/09/30 14:26:06;;;;;;;0.10;0.10;;;;;;;17.93;49.46;102298.03;5034505;28;20028;-88
2021/09/30 14:28:33;;;;;;;0.10;0.10;;;;;;;17.99;48.82;102295.19;5034125;28;20037;-87
2021/09/30 14:31:01;;;;;;;0.10;0.10;;;;;;;17.87;48.52;102298.19;5033221;28;20069;-87
2021/09/30 14:33:29;;;;;;;0.00;0.00;;;;;;;17.92;47.99;102289.09;5033807;28;20029;-86
2021/09/30 14:35:57;;;;;;;0.10;0.10;;;;;;;17.70;47.98;102287.94;5031280;28;20108;-86
2021/09/30 14:38:24;;;;;;;0.10;0.10;;;;;;;17.69;47.28;102281.69;5033797;28;20061;-87
2021/09/30 14:40:51;;;;;;;0.10;0.10;;;;;;;17.67;47.52;102278.19;5033526;28;20022;-87
2021/09/30 14:43:19;;;;;;;0.10;0.10;;;;;;;17.59;48.29;102277.50;5033485;28;20021;-87
2021/09/30 14:45:46;;;;;;;2.05;1.23;;;;;;;17.59;48.72;102290.91;5033517;28;20057;-86
2021/09/30 14:48:12;;;;;;;0.10;0.10;;;;;;;17.45;48.06;102278.72;5032292;28;20469;-86
2021/09/30 14:50:40;;;;;;;0.10;0.10;;;;;;;17.40;48.50;102267.25;5033512;28;20391;-86
2021/09/30 14:53:07;;;;;;;0.10;0.10;;;;;;;17.40;48.33;102274.44;5033290;28;20034;-86
2021/09/30 14:55:34;;;;;;;0.57;0.57;;;;;;;17.61;48.69;102273.00;5033917;28;20022;-86
2021/09/30 14:58:00;;;;;;;0.10;0.10;;;;;;;17.50;48.35;102280.44;5033826;28;20041;-86
2021/09/30 15:00:26;;;;;;;0.10;0.10;;;;;;;17.34;47.79;102259.38;5033626;28;20044;-87
2021/09/30 15:02:52;;;;;;;0.30;0.30;;;;;;;17.31;48.49;102270.19;5033688;28;20021;-87
2021/09/30 15:05:19;;;;;;;0.10;0.10;;;;;;;17.32;48.29;102258.56;5033143;28;20112;-87
2021/09/30 15:07:45;;;;;;;0.10;0.10;;;;;;;17.33;48.59;102256.75;5033456;28;20128;-86
2021/09/30 15:10:11;;;;;;;0.05;0.05;;;;;;;17.38;48.47;102254.81;5033216;28;20021;-86
2021/09/30 15:12:37;;;;;;;0.10;0.10;;;;;;;17.43;48.59;102252.91;5033437;28;20057;-86